createdAt,value
2023-03-20T00:02:00.302Z,37.40
2023-03-20T00:04:27.397Z,27.65
2023-03-20T00:06:54.502Z,32.55
2023-03-20T00:09:21.465Z,34.72
2023-03-20T00:11:51.375Z,27.23
2023-03-20T00:16:49.654Z,31.63
2023-03-20T00:19:23.214Z,32.83
2023-03-20T00:21:52.441Z,33.92
2023-03-20T00:24:20.127Z,39.17
2023-03-20T00:26:49.313Z,31.27
2023-03-20T00:29:26.743Z,31.38
2023-03-20T00:31:55.147Z,35.35
2023-03-20T00:34:31.072Z,32.60
2023-03-20T00:36:58.188Z,32.40
2023-03-20T00:39:25.236Z,35.22
2023-03-20T00:41:57.436Z,36.28
2023-03-20T00:44:54.309Z,31.85
2023-03-20T00:47:25.331Z,35.15
2023-03-20T00:49:54.566Z,30.05
2023-03-20T00:52:22.806Z,36.85
2023-03-20T00:57:31.009Z,33.15
2023-03-20T01:00:29.076Z,35.22
2023-03-20T01:02:58.144Z,33.03
2023-03-20T01:05:27.526Z,35.20
2023-03-20T01:07:55.820Z,31.83
2023-03-20T01:10:28.352Z,31.58
2023-03-20T01:12:58.245Z,36.95
2023-03-20T01:15:32.068Z,29.85
2023-03-20T01:17:59.037Z,35.97
2023-03-20T01:20:30.260Z,40.00
2023-03-20T01:22:57.595Z,31.83
2023-03-20T01:25:24.632Z,34.33
2023-03-20T01:27:54.439Z,28.08
2023-03-20T01:30:29.366Z,33.13
2023-03-20T01:32:57.703Z,39.42
2023-03-20T01:35:27.701Z,39.45
2023-03-20T01:37:56.298Z,39.95
2023-03-20T01:40:39.850Z,39.10
2023-03-20T01:43:16.860Z,40.88
2023-03-20T01:46:21.407Z,40.28
2023-03-20T01:48:53.510Z,37.95
2023-03-20T01:51:23.100Z,36.40
2023-03-20T01:54:02.415Z,36.67
2023-03-20T01:56:42.847Z,39.60
2023-03-20T01:59:21.771Z,38.85
2023-03-20T02:01:48.753Z,37.17
2023-03-20T02:04:26.166Z,36.50
2023-03-20T02:06:58.399Z,41.25
2023-03-20T02:09:40.731Z,37.40
2023-03-20T02:12:13.463Z,43.05
2023-03-20T02:14:41.231Z,39.72
2023-03-20T02:17:24.186Z,40.47
2023-03-20T02:20:46.741Z,36.92
2023-03-20T02:23:48.420Z,38.15
2023-03-20T02:26:37.491Z,36.70
2023-03-20T02:29:45.536Z,41.00
2023-03-20T02:33:11.933Z,40.28
2023-03-20T02:37:05.266Z,38.85
2023-03-20T02:40:07.030Z,37.10
2023-03-20T02:43:26.148Z,44.75
2023-03-20T02:46:29.346Z,38.30
2023-03-20T02:49:05.904Z,41.40
2023-03-20T02:51:37.476Z,41.05
2023-03-20T02:54:45.212Z,41.25
2023-03-20T02:57:26.103Z,45.13
2023-03-20T03:00:09.819Z,39.72
2023-03-20T03:02:48.971Z,50.25
2023-03-20T03:05:23.792Z,47.38
2023-03-20T03:07:56.264Z,45.17
2023-03-20T03:10:33.084Z,50.22
2023-03-20T03:13:03.370Z,48.20
2023-03-20T03:15:35.469Z,46.33
2023-03-20T03:18:07.332Z,46.13
2023-03-20T03:20:38.616Z,42.85
2023-03-20T03:23:07.216Z,45.92
2023-03-20T03:25:38.557Z,49.22
2023-03-20T03:28:28.810Z,46.13
2023-03-20T03:30:57.608Z,49.53
2023-03-20T03:33:30.473Z,41.88
2023-03-20T03:36:21.678Z,36.80
2023-03-20T03:39:21.386Z,49.40
2023-03-20T03:42:07.048Z,47.25
2023-03-20T03:45:14.180Z,45.72
2023-03-20T03:48:04.222Z,28.50
2023-03-20T03:50:48.625Z,49.10
2023-03-20T03:53:22.791Z,47.20
2023-03-20T03:55:57.610Z,56.58
2023-03-20T03:58:57.819Z,46.05
2023-03-20T04:01:27.420Z,40.17
2023-03-20T04:04:01.032Z,53.63
2023-03-20T04:06:28.499Z,49.08
2023-03-20T04:08:55.691Z,26.27
2023-03-20T04:11:25.317Z,62.00
2023-03-20T04:13:53.381Z,49.50
2023-03-20T04:16:24.548Z,51.95
2023-03-20T04:18:52.393Z,49.05
2023-03-20T04:21:19.628Z,46.42
2023-03-20T04:23:46.880Z,49.10
2023-03-20T04:26:14.431Z,46.15
2023-03-20T04:28:41.346Z,51.97
2023-03-20T04:31:20.904Z,48.33
2023-03-20T04:34:09.711Z,49.30
2023-03-20T04:36:36.650Z,52.95
2023-03-20T04:39:06.111Z,46.50
2023-03-20T04:41:33.983Z,40.25
2023-03-20T04:44:00.924Z,42.25
2023-03-20T04:46:28.675Z,38.97
2023-03-20T04:48:55.865Z,51.95
2023-03-20T04:51:26.164Z,54.25
2023-03-20T04:53:54.135Z,51.78
2023-03-20T04:56:21.056Z,54.83
2023-03-20T04:58:49.620Z,52.47
2023-03-20T05:01:18.821Z,46.95
2023-03-20T05:03:46.786Z,36.40
2023-03-20T05:06:13.810Z,47.83
2023-03-20T05:08:42.912Z,50.97
2023-03-20T05:11:10.488Z,52.88
2023-03-20T05:14:00.676Z,50.95
2023-03-20T05:16:41.717Z,48.67
2023-03-20T05:19:43.032Z,42.83
2023-03-20T05:22:19.184Z,48.97
2023-03-20T05:24:55.827Z,50.55
2023-03-20T05:27:47.685Z,50.40
2023-03-20T05:30:34.162Z,49.95
2023-03-20T05:33:33.891Z,42.50
2023-03-20T05:36:09.507Z,53.08
2023-03-20T05:38:50.941Z,43.75
2023-03-20T05:41:31.840Z,38.67
2023-03-20T05:44:30.866Z,48.63
2023-03-20T05:47:17.870Z,49.63
2023-03-20T05:49:57.360Z,45.92
2023-03-20T05:52:49.072Z,26.05
2023-03-20T05:55:38.884Z,37.35
2023-03-20T05:58:35.015Z,27.70
2023-03-20T06:01:23.244Z,37.25
2023-03-20T06:03:59.386Z,39.20
2023-03-20T06:06:48.568Z,27.90
2023-03-20T06:09:15.676Z,31.63
2023-03-20T06:11:42.754Z,31.00
2023-03-20T06:14:10.481Z,30.63
2023-03-20T06:16:40.471Z,42.53
2023-03-20T06:19:07.433Z,30.02
2023-03-20T06:21:36.839Z,32.55
2023-03-20T06:24:05.377Z,28.88
2023-03-20T06:26:32.556Z,27.48
2023-03-20T06:29:03.910Z,27.52
2023-03-20T06:31:32.400Z,26.38
2023-03-20T06:34:00.989Z,47.47
2023-03-20T06:36:28.225Z,21.98
2023-03-20T06:39:01.611Z,22.23
2023-03-20T06:41:34.677Z,21.35
2023-03-20T06:44:05.805Z,28.20
2023-03-20T06:46:53.060Z,18.85
2023-03-20T06:49:20.137Z,23.70
2023-03-20T06:51:48.216Z,23.38
2023-03-20T06:54:27.291Z,27.85
2023-03-20T06:56:55.259Z,23.88
2023-03-20T06:59:22.498Z,24.05
2023-03-20T07:01:50.796Z,24.98
2023-03-20T07:04:17.881Z,18.20
2023-03-20T07:06:52.199Z,24.20
2023-03-20T07:09:19.337Z,26.83
2023-03-20T07:11:46.874Z,23.33
2023-03-20T07:14:15.433Z,23.58
2023-03-20T07:16:48.444Z,24.08
2023-03-20T07:19:15.543Z,22.75
2023-03-20T07:21:45.064Z,24.20
2023-03-20T07:24:14.391Z,26.77
2023-03-20T07:26:41.845Z,28.05
2023-03-20T07:29:08.969Z,26.92
2023-03-20T07:31:36.625Z,24.42
2023-03-20T07:34:23.187Z,28.90
2023-03-20T07:36:51.661Z,23.65
2023-03-20T07:42:14.796Z,22.20
2023-03-20T07:44:45.488Z,21.98
2023-03-20T07:47:12.620Z,23.45
2023-03-20T07:49:39.786Z,24.50
2023-03-20T07:52:09.168Z,23.33
2023-03-20T07:54:36.415Z,26.95
2023-03-20T07:57:05.364Z,24.98
2023-03-20T07:59:32.745Z,27.35
2023-03-20T08:01:59.744Z,29.40
2023-03-20T08:04:29.875Z,23.60
2023-03-20T08:07:04.458Z,22.35
2023-03-20T08:09:31.519Z,27.27
2023-03-20T08:11:58.466Z,24.42
2023-03-20T08:14:25.512Z,17.23
2023-03-20T08:17:10.206Z,23.73
2023-03-20T08:19:39.495Z,22.10
2023-03-20T08:22:07.076Z,25.95
2023-03-20T08:24:34.004Z,24.23
2023-03-20T08:27:00.989Z,25.48
2023-03-20T08:29:28.003Z,27.83
2023-03-20T08:31:56.157Z,22.20
2023-03-20T08:34:24.170Z,14.13
2023-03-20T08:36:52.417Z,15.23
2023-03-20T08:39:19.393Z,17.67
2023-03-20T08:41:46.406Z,23.20
2023-03-20T08:44:13.745Z,20.67
2023-03-20T08:46:40.706Z,14.63
2023-03-20T08:49:07.653Z,18.13
2023-03-20T08:51:34.608Z,13.10
2023-03-20T08:54:01.618Z,16.25
2023-03-20T08:56:28.737Z,13.35
2023-03-20T08:58:56.202Z,13.13
2023-03-20T09:01:23.667Z,12.23
2023-03-20T09:03:50.833Z,14.63
2023-03-20T09:06:18.015Z,12.05
2023-03-20T09:08:44.897Z,13.20
2023-03-20T09:11:11.852Z,12.88
2023-03-20T09:13:38.989Z,15.20
2023-03-20T09:16:06.619Z,13.40
2023-03-20T09:18:33.630Z,13.85
2023-03-20T09:21:01.142Z,12.50
2023-03-20T09:23:28.122Z,10.68
2023-03-20T09:25:55.422Z,11.32
2023-03-20T09:28:22.352Z,12.32
2023-03-20T09:30:49.647Z,11.85
2023-03-20T09:33:18.467Z,11.07
2023-03-20T09:35:45.818Z,10.25
2023-03-20T09:38:13.663Z,10.27
2023-03-20T09:41:00.906Z,11.10
2023-03-20T09:43:58.084Z,11.95
2023-03-20T09:46:40.850Z,12.73
2023-03-20T09:49:30.664Z,11.40
2023-03-20T09:52:26.080Z,10.65
2023-03-20T09:54:58.260Z,12.40
2023-03-20T09:57:32.817Z,11.88
2023-03-20T10:00:07.407Z,10.32
2023-03-20T10:03:01.946Z,9.60
2023-03-20T10:05:59.079Z,9.02
2023-03-20T10:08:39.214Z,10.05
2023-03-20T10:11:11.965Z,10.30
2023-03-20T10:14:09.662Z,10.90
2023-03-20T10:17:09.189Z,10.43
2023-03-20T10:19:47.423Z,10.82
2023-03-20T10:22:32.286Z,9.85
2023-03-20T10:25:17.479Z,10.07
2023-03-20T10:27:49.677Z,11.65
2023-03-20T10:30:47.452Z,15.68
2023-03-20T10:33:39.188Z,12.23
2023-03-20T10:36:32.470Z,11.15
2023-03-20T10:39:19.173Z,12.07
2023-03-20T10:41:58.925Z,12.65
2023-03-20T10:44:44.467Z,9.50
2023-03-20T10:47:16.956Z,11.15
2023-03-20T10:49:55.055Z,11.80
2023-03-20T10:52:34.578Z,10.82
2023-03-20T10:55:14.653Z,10.65
2023-03-20T10:57:49.303Z,10.60
2023-03-20T11:00:25.072Z,11.85
2023-03-20T11:02:52.542Z,9.77
2023-03-20T11:05:37.210Z,8.27
2023-03-20T11:08:13.800Z,8.90
2023-03-20T11:10:42.904Z,10.85
2023-03-20T11:13:19.225Z,8.80
2023-03-20T11:15:46.858Z,10.27
2023-03-20T11:18:15.830Z,10.13
2023-03-20T11:20:57.741Z,10.05
2023-03-20T11:23:31.317Z,9.93
2023-03-20T11:26:16.218Z,11.57
2023-03-20T11:28:59.840Z,10.43
2023-03-20T11:31:40.677Z,12.82
2023-03-20T11:34:07.519Z,12.45
2023-03-20T11:36:37.543Z,12.18
2023-03-20T11:39:10.452Z,12.70
2023-03-20T11:41:45.136Z,11.43
2023-03-20T11:44:22.820Z,12.95
2023-03-20T11:47:03.630Z,12.15
2023-03-20T11:49:47.778Z,11.02
2023-03-20T11:52:20.145Z,14.50
2023-03-20T11:54:52.128Z,11.35
2023-03-20T11:57:38.689Z,12.50
2023-03-20T12:00:17.061Z,11.85
2023-03-20T12:02:45.041Z,11.63
2023-03-20T12:05:33.055Z,11.00
2023-03-20T12:08:20.928Z,10.73
2023-03-20T12:11:01.049Z,11.60
2023-03-20T12:13:35.641Z,10.57
2023-03-20T12:16:08.139Z,12.10
2023-03-20T12:18:44.698Z,10.02
2023-03-20T12:21:34.760Z,11.27
2023-03-20T12:24:41.113Z,12.20
2023-03-20T12:27:37.431Z,10.25
2023-03-20T12:30:18.522Z,11.98
2023-03-20T12:33:12.960Z,10.88
2023-03-20T12:35:47.362Z,11.88
2023-03-20T12:38:34.409Z,11.02
2023-03-20T12:41:19.809Z,11.55
2023-03-20T12:43:52.457Z,11.02
2023-03-20T12:46:51.928Z,10.70
2023-03-20T12:49:40.263Z,11.77
2023-03-20T12:52:15.623Z,11.27
2023-03-20T12:55:21.038Z,11.88
2023-03-20T12:58:02.971Z,10.95
2023-03-20T13:00:51.262Z,12.05
2023-03-20T13:04:14.167Z,10.88
2023-03-20T13:07:07.643Z,10.65
2023-03-20T13:09:44.953Z,10.52
2023-03-20T13:12:37.798Z,11.13
2023-03-20T13:15:28.679Z,10.55
2023-03-20T13:18:13.997Z,10.43
2023-03-20T13:20:57.152Z,11.38
2023-03-20T13:26:53.792Z,10.05
2023-03-20T13:29:52.878Z,11.07
2023-03-20T13:32:32.200Z,10.35
2023-03-20T13:36:17.655Z,10.52
2023-03-20T13:38:52.323Z,10.98
2023-03-20T13:41:19.221Z,11.13
2023-03-20T13:43:54.350Z,10.02
2023-03-20T13:46:27.814Z,11.25
2023-03-20T13:49:02.507Z,11.15
2023-03-20T13:51:38.659Z,10.68
2023-03-20T13:54:33.122Z,10.85
2023-03-20T13:57:15.720Z,11.05
2023-03-20T14:00:02.091Z,11.20
2023-03-20T14:03:13.363Z,11.23
2023-03-20T14:05:43.901Z,10.27
2023-03-20T14:08:27.167Z,12.35
2023-03-20T14:11:14.787Z,10.77
2023-03-20T14:13:51.797Z,11.80
2023-03-20T14:16:20.323Z,10.55
2023-03-20T14:19:06.271Z,12.20
2023-03-20T14:21:35.657Z,12.82
2023-03-20T14:24:08.019Z,11.65
2023-03-20T14:26:42.260Z,10.90
2023-03-20T14:29:12.423Z,11.63
2023-03-20T14:31:42.144Z,12.63
2023-03-20T14:34:12.187Z,10.65
2023-03-20T14:37:00.859Z,11.10
2023-03-20T14:39:30.529Z,11.45
2023-03-20T14:42:34.251Z,11.63
2023-03-20T14:45:32.202Z,10.23
2023-03-20T14:48:29.086Z,12.40
2023-03-20T14:51:07.361Z,11.05
2023-03-20T14:53:34.570Z,10.13
2023-03-20T14:56:13.332Z,10.02
2023-03-20T14:58:43.338Z,10.48
2023-03-20T15:04:22.018Z,10.68
2023-03-20T15:07:16.062Z,10.10
2023-03-20T15:09:50.243Z,12.07
2023-03-20T15:12:21.753Z,10.48
2023-03-20T15:14:57.943Z,10.63
2023-03-20T15:17:34.504Z,12.93
2023-03-20T15:22:50.816Z,12.88
2023-03-20T15:25:20.683Z,11.50
2023-03-20T15:30:20.002Z,12.38
2023-03-20T15:32:53.029Z,11.45
2023-03-20T15:35:24.007Z,11.05
2023-03-20T15:37:53.282Z,11.43
2023-03-20T15:40:47.503Z,11.90
2023-03-20T15:43:24.367Z,11.50
2023-03-20T15:46:02.900Z,11.68
2023-03-20T15:48:37.264Z,12.23
2023-03-20T15:51:05.587Z,11.40
2023-03-20T15:53:36.647Z,11.65
2023-03-20T15:56:18.088Z,13.70
2023-03-20T15:58:48.008Z,11.40
2023-03-20T16:01:24.264Z,11.88
2023-03-20T16:03:52.963Z,13.18
2023-03-20T16:06:22.612Z,12.18
2023-03-20T16:09:02.780Z,11.93
2023-03-20T16:11:42.665Z,11.95
2023-03-20T16:14:19.319Z,11.70
2023-03-20T16:16:50.547Z,11.77
2023-03-20T16:19:18.252Z,12.65
2023-03-20T16:21:53.886Z,11.25
2023-03-20T16:24:36.332Z,12.90
2023-03-20T16:27:10.409Z,14.13
2023-03-20T16:29:42.953Z,12.27
2023-03-20T16:32:37.034Z,11.23
2023-03-20T16:35:26.702Z,11.35
2023-03-20T16:37:58.953Z,12.48
2023-03-20T16:40:37.024Z,10.85
2023-03-20T16:43:18.034Z,18.10
2023-03-20T16:45:54.497Z,16.63
2023-03-20T16:48:28.622Z,9.15
2023-03-20T16:51:28.837Z,9.05
2023-03-20T16:53:58.958Z,10.82
2023-03-20T16:58:57.230Z,11.10
2023-03-20T17:01:28.043Z,10.52
2023-03-20T17:04:13.909Z,12.48
2023-03-20T17:06:56.365Z,23.25
2023-03-20T17:09:31.066Z,19.02
2023-03-20T17:12:11.417Z,29.25
2023-03-20T17:14:40.344Z,12.05
2023-03-20T17:17:19.573Z,14.88
2023-03-20T17:19:49.952Z,13.23
2023-03-20T17:22:22.260Z,13.77
2023-03-20T17:24:50.804Z,18.08
2023-03-20T17:27:19.903Z,14.27
2023-03-20T17:29:49.369Z,18.00
2023-03-20T17:32:20.000Z,23.73
2023-03-20T17:34:49.457Z,23.85
2023-03-20T17:37:29.460Z,18.00
2023-03-20T17:39:56.684Z,17.20
2023-03-20T17:42:26.845Z,12.40
2023-03-20T17:44:54.047Z,13.10
2023-03-20T17:47:26.791Z,17.55
2023-03-20T17:49:54.675Z,18.70
2023-03-20T17:52:25.976Z,30.10
2023-03-20T17:54:53.345Z,40.47
2023-03-20T17:57:38.657Z,35.67
2023-03-20T18:00:22.432Z,32.45
2023-03-20T18:02:50.502Z,33.80
2023-03-20T18:05:17.942Z,42.15
2023-03-20T18:07:45.094Z,32.25
2023-03-20T18:10:31.909Z,20.52
2023-03-20T18:12:59.845Z,19.23
2023-03-20T18:15:26.728Z,22.52
2023-03-20T18:17:53.857Z,12.63
2023-03-20T18:20:34.099Z,11.32
2023-03-20T18:23:01.163Z,16.50
2023-03-20T18:25:28.400Z,13.48
2023-03-20T18:27:57.468Z,17.77
2023-03-20T18:30:41.420Z,18.63
2023-03-20T18:33:08.680Z,20.17
2023-03-20T18:35:37.230Z,22.63
2023-03-20T18:38:05.627Z,25.63
2023-03-20T18:40:36.512Z,15.82
2023-03-20T18:43:04.233Z,13.50
2023-03-20T18:45:32.146Z,19.88
2023-03-20T18:47:59.937Z,31.55
2023-03-20T18:50:37.117Z,23.35
2023-03-20T18:53:06.994Z,16.85
2023-03-20T18:55:35.251Z,18.13
2023-03-20T18:58:03.836Z,15.77
2023-03-20T19:00:38.266Z,34.17
2023-03-20T19:03:07.416Z,20.52
2023-03-20T19:05:34.399Z,21.40
2023-03-20T19:08:03.137Z,31.73
2023-03-20T19:10:38.735Z,30.23
2023-03-20T19:13:07.580Z,21.30
2023-03-20T19:15:37.274Z,24.10
2023-03-20T19:18:17.276Z,24.33
2023-03-20T19:20:56.337Z,18.00
2023-03-20T19:23:25.845Z,18.63
2023-03-20T19:25:55.172Z,21.00
2023-03-20T19:28:37.611Z,18.88
2023-03-20T19:31:06.269Z,19.63
2023-03-20T19:33:33.346Z,18.25
2023-03-20T19:36:11.935Z,27.30
2023-03-20T19:38:39.269Z,19.58
2023-03-20T19:41:09.018Z,16.52
2023-03-20T19:43:51.484Z,25.63
2023-03-20T19:46:36.161Z,19.45
2023-03-20T19:49:06.762Z,24.20
2023-03-20T19:51:34.026Z,20.17
2023-03-20T19:54:00.895Z,19.20
2023-03-20T19:56:27.842Z,18.95
2023-03-20T19:58:55.047Z,20.23
2023-03-20T20:01:25.455Z,17.15
2023-03-20T20:03:53.850Z,14.75
2023-03-20T20:06:22.756Z,12.38
2023-03-20T20:08:50.569Z,15.70
2023-03-20T20:11:20.082Z,17.77
2023-03-20T20:14:04.846Z,16.45
2023-03-20T20:16:35.980Z,19.92
2023-03-20T20:19:04.576Z,13.38
2023-03-20T20:22:17.297Z,14.77
2023-03-20T20:24:23.173Z,16.27
2023-03-20T20:27:15.304Z,21.08
2023-03-20T20:29:48.022Z,14.25
2023-03-20T20:32:16.225Z,22.15
2023-03-20T20:40:20.569Z,19.42
2023-03-20T20:42:49.260Z,22.02
2023-03-20T20:45:16.202Z,23.75
2023-03-20T20:47:45.173Z,21.85
2023-03-20T20:50:17.987Z,21.88
2023-03-20T20:52:45.527Z,31.40
2023-03-20T20:55:23.098Z,30.48
2023-03-20T20:57:52.701Z,20.65
2023-03-20T21:00:27.361Z,29.73
2023-03-20T21:02:58.576Z,31.40
2023-03-20T21:05:26.931Z,27.20
2023-03-20T21:07:54.461Z,31.05
2023-03-20T21:10:22.244Z,33.35
2023-03-20T21:12:59.216Z,18.85
2023-03-20T21:15:27.490Z,34.50
2023-03-20T21:18:01.207Z,32.17
2023-03-20T21:20:30.914Z,30.52
2023-03-20T21:22:58.345Z,29.35
2023-03-20T21:25:39.267Z,31.88
2023-03-20T21:28:07.173Z,34.63
2023-03-20T21:30:34.381Z,31.42
2023-03-20T21:33:03.318Z,26.90
2023-03-20T21:35:48.086Z,33.13
2023-03-20T21:41:10.965Z,22.30
2023-03-20T21:43:41.581Z,16.42
2023-03-20T21:49:46.519Z,25.50
2023-03-20T21:52:37.415Z,23.30
2023-03-20T21:57:55.732Z,25.75
2023-03-20T22:02:57.054Z,21.02
2023-03-20T22:11:44.993Z,16.98
2023-03-20T22:17:33.201Z,22.17
2023-03-20T22:23:15.319Z,22.85
2023-03-20T22:25:44.347Z,20.70
2023-03-20T22:34:10.472Z,18.90
2023-03-20T22:39:47.985Z,33.60
2023-03-20T22:47:17.800Z,26.60
2023-03-20T22:49:44.792Z,27.35
2023-03-20T22:52:26.432Z,30.27
2023-03-20T22:54:58.567Z,33.83
2023-03-20T22:57:38.508Z,37.63
2023-03-20T23:00:10.453Z,23.50
2023-03-20T23:02:37.703Z,29.85
2023-03-20T23:05:04.858Z,29.13
2023-03-20T23:07:31.991Z,21.83
2023-03-20T23:09:59.029Z,35.88
2023-03-20T23:12:26.093Z,26.98
2023-03-20T23:14:57.066Z,33.58
2023-03-20T23:17:24.035Z,36.97
2023-03-20T23:19:56.575Z,33.20
2023-03-20T23:22:32.130Z,25.23
2023-03-20T23:25:02.804Z,23.92
2023-03-20T23:27:37.022Z,20.88
2023-03-20T23:30:05.306Z,26.35
2023-03-20T23:32:37.282Z,22.58
2023-03-20T23:35:05.806Z,27.10
2023-03-20T23:37:34.705Z,24.63
2023-03-20T23:40:02.110Z,28.23
2023-03-20T23:42:30.923Z,33.05
2023-03-20T23:45:04.357Z,18.88
2023-03-20T23:47:44.234Z,25.42
2023-03-20T23:50:20.694Z,22.73
2023-03-20T23:55:41.228Z,33.58
2023-03-20T23:58:08.428Z,25.27
